Barnard, South Dakota
Current Conditions -  °F | °C
As of 6:53 PM on Friday 24 Oct 2014 (Local Time) from KABR Reporting Station
Clear Clear  
Wind Chill: 66°   Ceiling: Unl
Heat Index: 66°   Visibility: 10mi
Dew Point: 40°   Wind: 8mph
Humidity: 38%   Direction: 290°WNW
Pressure: 29.93"   Gusts: NA
Location:  45.73°N, 98.5°W
Report Text: KABR 242353Z AUTO 29007KT 10SM CLR 19/04 A2993 RMK AO2 SLP137 T01890044 10267 20189 53020
Loading
Personal Weather Stations






























Interactive Weather Map
Tropical Storm Tracking
New forecast layout! Learn more

10-Day Weather Forecast

Advertisements
Track Severe Weather on mobile